Pahranagat National Wildlife Refuge, Nevada Weather observations

Data are for 10 minute period ending at time listed.
 Day   Time   Solar   Ave.   Ave.  Ave.  Vector  Max.   Baro.   Total    
  of    of     Rad.   Air    Rel.  Wind   Wind   Wind  Press.  Precip.   
Year   Day            Temp.  Hum.  Speed  Dir.   Gust                    
2017   (PST)  Kw/m2    F      %     mph   deg.    mph    mb.     in.     
-------------------------------------------------------------------------
  35   20:50   0.00   37.5    84    0.1   283     0.9   903.6    0.00 
  35   21:00   0.00   37.3    85    0.2   326     1.6   903.6    0.00 
  35   21:10   0.00   37.5    85    0.1   194     1.9   903.6    0.00 
  35   21:20   0.00   36.7    85    0.5   339     2.0   903.8    0.00 
  35   21:30   0.00   37.0    86    1.8   357     2.5   903.9    0.00 
  35   21:40   0.00   36.0    85    0.7   310     2.0   903.9    0.00 
  35   21:50   0.00   34.0    88    1.2   295     2.4   903.9    0.00 
  35   22:00   0.00   33.4    90    1.7   332     2.4   904.0    0.00 
  35   22:10   0.00   33.7    90    1.5   346     2.0   904.1    0.00 
  35   22:20   0.00   33.5    90    1.7   340     2.6   904.3    0.00 
  35   22:30   0.00   33.4    91    2.2   300     3.0   904.3    0.00 
  35   22:40   0.00   33.4    91    0.5   291     1.5   904.3    0.00 
  35   22:50   0.00   34.1    91    0.4   330     1.2   904.4    0.00 
  35   23:00   0.00   34.6    92    1.4     4     2.2   904.4    0.00 
  35   23:10   0.00   35.2    91    2.2     0     4.1   904.5    0.00 
  35   23:20   0.00   34.4    91    2.6   299     3.9   904.5    0.00 
  35   23:30   0.00   35.1    92    3.2   310     3.8   904.5    0.00 
  35   23:40   0.00   35.4    92    3.0   326     3.7   904.6    0.00 
  35   23:50   0.00   35.3    92    2.4   327     3.1   904.5    0.00 
  36    0:00   0.00   35.5    92    2.3   328     2.9   904.5    0.00 
  36    0:10   0.00   35.2    92    2.5   349     3.3   904.4    0.00 
  36    0:20   0.00   35.3    92    1.8   322     3.7   904.3    0.00 
  36    0:30   0.00   34.9    91    1.8   319     3.4   904.3    0.00 
  36    0:40   0.00   34.7    92    2.1   344     2.7   904.3    0.00 
  36    0:50   0.00   35.0    92    0.4   316     1.2   904.3    0.00 
  36    1:00   0.00   35.0    92    1.6   288     3.1   904.3    0.00 
  36    1:10   0.00   33.8    92    1.1   270     2.4   904.3    0.00 
  36    1:20   0.00   34.3    93    0.3   359     1.5   904.3    0.00 
  36    1:30   0.00   34.7    92    0.4   327     1.3   904.3    0.00 
  36    1:40   0.00   34.3    92    1.5    38     2.8   904.5    0.00 
  36    1:50   0.00   33.8    92    2.1   330     2.7   904.4    0.00 
  36    2:00   0.00   32.4    93    1.1   260     2.8   904.4    0.00 
  36    2:10   0.00   31.5    93    0.4   328     1.4   904.4    0.00 
  36    2:20   0.00   32.4    94    0.5   352     1.2   904.3    0.00 
  36    2:30   0.00   33.0    94    1.5     1     2.0   904.3    0.00 
  36    2:40   0.00   31.2    93    1.6   328     2.1   904.3    0.00 
  36    2:50   0.00   30.1    94    0.1   328     0.9   904.3    0.00 
  36    3:00   0.00   31.2    94    0.6   349     0.9   904.2    0.00 
  36    3:10   0.00   30.5    94    0.5   349     1.2   904.0    0.00 
  36    3:20   0.00   30.4    94    0.0     0     0.0   904.0    0.00 
  36    3:30   0.00   30.2    94    0.7   349     1.1   903.8    0.00 
  36    3:40   0.00   29.9    94    1.3   306     2.3   903.8    0.00 
  36    3:50   0.00   28.7    95    1.1   337     1.6   903.7    0.00 
  36    4:00   0.00   29.2    95    1.7     5     2.5   903.7    0.00 
  36    4:10   0.00   29.6    95    1.1    16     1.9   903.7    0.00 
  36    4:20   0.00   28.2    95    1.8   299     3.9   903.6    0.00 
  36    4:30   0.00   28.6    96    0.9    33     2.6   903.6    0.00 
  36    4:40   0.00   28.6    96    0.4    49     2.0   903.7    0.00 
  36    4:50   0.00   29.8    96    0.8    64     2.6   903.7    0.00 
  36    5:00   0.00   30.2    96    1.6   320     2.9   903.6    0.00 
  36    5:10   0.00   28.0    95    2.2   312     3.1   903.7    0.00 
  36    5:20   0.00   27.2    96    0.9   348     2.5   903.7    0.00 
  36    5:30   0.00   28.0    96    1.3   343     2.0   903.8    0.00 
  36    5:40   0.00   28.7    96    0.7   354     1.8   903.8    0.00 
  36    5:50   0.00   30.0    96    0.3   309     1.0   903.7    0.00 
  36    6:00   0.00   29.4    96    0.3    33     1.2   903.8    0.00 
  36    6:10   0.00   29.6    96    1.4    93     2.6   904.0    0.00 
  36    6:20   0.00   29.2    96    1.9     6     3.1   904.1    0.00 
  36    6:30   0.00   28.3    96    1.4   345     1.9   904.2    0.00 
  36    6:40   0.00   27.9    96    0.7   323     1.4   904.3    0.00 
  36    6:50   0.01   27.5    96    0.2   301     1.4   904.4    0.00 
  36    7:00   0.02   27.7    96    1.3   324     3.4   904.5    0.00 
  36    7:10   0.05   29.3    96    1.1   237     3.4   904.5    0.00 
  36    7:20   0.08   31.0    96    0.5   268     1.3   904.6    0.00 
  36    7:30   0.05   32.7    96    0.3   359     1.8   904.7    0.00 
  36    7:40   0.06   32.6    95    1.4    42     2.1   904.7    0.00 
  36    7:50   0.05   33.5    95    1.1    35     1.5   904.6    0.00 
  36    8:00   0.06   34.3    95    0.9   313     1.6   904.6    0.00 
  36    8:10   0.08   35.1    95    1.2   305     1.8   904.6    0.00 
  36    8:20   0.08   36.0    94    1.7   326     3.0   904.6    0.00 
  36    8:30   0.09   36.8    94    0.8   338     1.8   904.7    0.00 
  36    8:40   0.10   37.6    93    1.4   350     3.2   904.6    0.00 
  36    8:50   0.12   38.6    92    2.1   338     3.6   904.6    0.00 
  36    9:00   0.13   39.5    90    2.7   329     4.4   904.6    0.00 
  36    9:10   0.18   40.7    87    1.8   269     3.9   904.7    0.00 
  36    9:20   0.21   42.2    84    2.0   306     4.0   904.7    0.00 
  36    9:30   0.21   43.5    82    0.7   337     2.5   904.8    0.00 
  36    9:40   0.26   44.8    76    2.6   325     6.7   904.8    0.00 
  36    9:50   0.29   46.0    71    6.3   346     9.8   905.0    0.00 
  36   10:00   0.34   47.1    67    5.2   327     8.6   905.1    0.00 
  36   10:10   0.37   48.3    63    4.3   321     7.7   905.1    0.00 
  36   10:20   0.38   49.5    61    5.1   307     8.4   905.0    0.00 
  36   10:30   0.41   50.7    58    5.9   306    10.2   904.8    0.00 
  36   10:40   0.41   51.9    55    4.4   318     7.9   904.7    0.00 
  36   10:50   0.39   53.0    53    2.9   341     7.5   904.8    0.00 
  36   11:00   0.41   53.8    51    2.9   352     7.5   904.6    0.00 
  36   11:10   0.42   54.5    50    2.7   349     5.8   904.3    0.00 
  36   11:20   0.41   56.0    48    2.2   120     6.4   904.1    0.00 
  36   11:30   0.42   56.7    48    3.7   178     6.1   903.9    0.00 
  36   11:40   0.38   57.0    46    1.9   164     4.7   903.6    0.00 
  36   11:50   0.39   57.5    45    2.2   189     5.1   903.4    0.00 
  36   12:00   0.38   58.0    45    4.9   168     8.4   903.1    0.00 
  36   12:10   0.35   57.9    44    5.9   160     9.3   902.8    0.00 
  36   12:20   0.36   57.5    46    7.4   145    11.2   902.5    0.00 
  36   12:30   0.30   57.8    44    8.6   161    15.6   902.2    0.00 
  36   12:40   0.21   57.1    45    9.5   161    14.2   902.0    0.00 
  36   12:50   0.27   57.1    46    9.9   162    15.6   901.7    0.00 
  36   13:00   0.25   57.0    46   10.2   156    16.9   901.5    0.00 
  36   13:10   0.19   56.9    45    9.7   157    16.4   901.2    0.00 
  36   13:20   0.20   56.8    46    8.9   166    14.0   901.0    0.00 
  36   13:30   0.20   57.0    45    9.8   157    14.2   900.7    0.00 
  36   13:40   0.19   56.8    46   10.1   157    14.8   900.4    0.00 
  36   13:50   0.19   56.8    46   10.2   153    16.5   900.2    0.00 
  36   14:00   0.15   56.6    46   12.1   159    15.9   900.2    0.00 
  36   14:10   0.17   56.4    46   10.0   161    13.2   900.1    0.00 
  36   14:20   0.22   56.9    46   10.7   159    15.6   899.9    0.00 
  36   14:30   0.18   56.9    46    9.5   160    14.4   899.8    0.00 
  36   14:40   0.14   56.6    46   10.1   160    15.8   899.8    0.00 
  36   14:50   0.13   56.5    46    8.8   166    13.6   899.9    0.00 
  36   15:00   0.14   56.8    45    8.7   171    13.0   899.9    0.00 
  36   15:10   0.15   56.9    44    9.3   177    12.9   899.9    0.00 
  36   15:20   0.15   57.1    43   10.1   175    14.8   899.9    0.00 
  36   15:30   0.14   57.0    44    9.7   167    14.4   899.9    0.00 
  36   15:40   0.10   56.4    45   10.4   166    14.2   899.9    0.00 
  36   15:50   0.09   55.9    45    9.9   168    14.0   899.9    0.00 
  36   16:00   0.06   55.6    46   11.4   165    14.8   899.9    0.00 
  36   16:10   0.04   55.2    47   11.0   162    15.0   899.9    0.00 
  36   16:20   0.04   54.9    48   10.3   162    13.8   899.9    0.00 
  36   16:30   0.03   54.7    49   10.1   159    14.4   900.0    0.00 
  36   16:40   0.02   54.0    51    7.9   152    11.3   899.9    0.00 
  36   16:50   0.02   53.6    51    8.3   146    11.9   899.8    0.00 
  36   17:00   0.01   53.2    53    6.5   152     9.1   899.8    0.00 
  36   17:10   0.01   52.9    54    5.7   153     8.6   899.9    0.00 
  36   17:20   0.00   52.4    55    5.5   157     9.0   899.9    0.00 
  36   17:30   0.00   52.7    54    6.1   149     8.6   899.8    0.00 
  36   17:40   0.00   51.6    56    5.2   136     6.9   899.7    0.00 
  36   17:50   0.00   50.8    57    5.7   144     7.4   899.7    0.00 
  36   18:00   0.00   51.4    56    7.2   149     9.8   899.7    0.00 
  36   18:10   0.00   52.5    52    8.7   147    13.8   899.6    0.00 
  36   18:20   0.00   52.7    52    8.9   142    13.3   899.4    0.00 
  36   18:30   0.00   52.5    53    7.0   149    10.4   899.4    0.00 
  36   18:40   0.00   51.0    58    4.9   140     5.8   899.4    0.00 
  36   18:50   0.00   50.1    58    5.4   135     6.4   899.4    0.00 
  36   19:00   0.00   50.2    57    4.6   128     6.3   899.4    0.00 
  36   19:10   0.00   50.1    57    4.3   118     6.7   899.4    0.00 
  36   19:20   0.00   50.2    57    3.8   139     6.6   899.4    0.00 
  36   19:30   0.00   49.9    57    4.2   109     6.3   899.2    0.00 
  36   19:40   0.00   49.6    58    1.9   126     3.9   899.1    0.00 
  36   19:50   0.00   49.4    59    2.1   158     5.6   899.1    0.00 
  36   20:00   0.00   50.1    57    1.4   140     5.0   899.0    0.00 
  36   20:10   0.00   46.9    60    1.4   338     2.7   899.2    0.00 
  36   20:20   0.00   46.4    64    1.2    85     3.9   899.2    0.00 
  36   20:30   0.00   49.2    60    3.7   126     8.3   899.0    0.00 
  36   20:40   0.00   49.3    59    3.2   112     4.4   898.7    0.00 

Return to Pahranagat N. Wildlife Refuge graphs page.


Western Regional Climate Center,wrcc@dri.edu